Durant, Oklahoma
Current Conditions -  °F | °C
As of 5:55 AM on Thursday 27 Nov 2014 (Local Time) from KDUA Reporting Station
Scattered Clouds Scattered Clouds  
Wind Chill: 27°   Ceiling: Unl
Heat Index: 36°   Visibility: 10mi
Dew Point: 28°   Wind: 13mph
Humidity: 75%   Direction: 20°NNE
Pressure: 30.5"   Gusts: NA
Location:  33.99°N, 96.39°W
Report Text: KDUA 271155Z AUTO 02011KT 10SM SCT095 02/M02 A3050 RMK AO2
Loading
Personal Weather Stations






























Interactive Weather Map New forecast layout! Learn more

10-Day Weather Forecast

Advertisements
Track Severe Weather on mobile